LZPPLZKZ

Guest
Details From LZPP - PIESTANY
To LZKZ - KOSICE
Flight Number -
Tags generated
Created
Modified
Stats Distance 136 nm / 251 km
Max Altitude 15,500 ft / 4,724 m
Waypoints 3
Social Downloads 0
Likes 0
Share

Download

Looking for another format? Having issues loading an existing format? Contact us
Advertisement - Login to hide

Notes

Basic altitude profile: - Ascent Rate: 2500ft/min - Ascent Speed: 250kts - Cruise Altitude: 10000ft - Cruise Speed: 420kts - Descent Rate: 1500ft/min - Descent Speed: 250kts Options: - Use NATs: yes - Use PACOTS: yes - Use low airways: yes - Use high airways: no

Route

LZPP UBARU LZKZ

ID Type Via Altitude (ft/m) Position (lat/lon) Dist (leg/tot) Name
O LZPP APT - 0 / 0 48.62525 / 17.82844 - / 0 nm PIESTANY
UBARU FIX - 15,500 / 4,724 48.60250 / 19.41167 62 / 62 nm
O LZKZ APT - 0 / 0 48.66303 / 21.24115 72 / 135 nm KOSICE

Altitude Profile

Advertisement - Login to hide

LZPP

Details ICAO LZPP (PZY)
Name PIESTANY
Region Slovakia
Timezone Europe/Bratislava (UTC+2.0)
Stats Elevation 544 ft / 166 m (AMSL)
Location 48.625100° 17.828600°
Runways 1
Magnetic Variation 5.115° E

METAR

LZPP 271430Z 24012KT CAVOK 25/12 Q1013

Decode

TAF

Not found

Departure Runways

ID Width Length Bearing (true/mag) Surface Threshold Overrun Markings Lighting
01 98 ft / 30 m 6,568 ft / 2,002 m 13.58° / 8.47° ASPHALT 0 ft / 0 m 0 ft / 0 m UK-PREC-APP EDGE THRESHOLD ALSF-I
19 98 ft / 30 m 6,568 ft / 2,002 m 193.59° / 188.47° ASPHALT 0 ft / 0 m 0 ft / 0 m UK-PREC-APP EDGE THRESHOLD SSALR

LZKZ

Details ICAO LZKZ (KSC)
Name KOSICE
Region Slovakia
Timezone Europe/Bratislava (UTC+2.0)
Stats Elevation 754 ft / 230 m (AMSL)
Location 48.663000° 21.241200°
Runways 1
Magnetic Variation 5.856° E

METAR

LZKZ 271430Z 24020KT CAVOK 25/10 Q1012 NOSIG

Decode

TAF

TAF LZKZ 271115Z 2712/2812 23012KT CAVOK TEMPO 2712/2720 24016G30KT BECMG 2720/2722 03005KT TEMPO 2722/2803 9999 -RA FEW020 SCT035 BKN045

Decode

Destination Runways

ID Width Length Bearing (true/mag) Surface Threshold Overrun Markings Lighting
01 148 ft / 45 m 10,177 ft / 3,102 m 13.04° / 7.18° ASPHALT 0 ft / 0 m 0 ft / 0 m UK-PREC-APP CENTERLINE EDGE THRESHOLD ALSF-II TDZ REIL-OMNI
19 148 ft / 45 m 10,177 ft / 3,102 m 193.05° / 187.19° ASPHALT 0 ft / 0 m 0 ft / 0 m UK-PREC-APP CENTERLINE EDGE THRESHOLD SSALR

Approach Navaids

Runway Type Ident Frequency Range Bearing (true/mag) Slope Elevation
01 GS KE 109.50 MHz 10 nm / 19 km 13.05° / 7.19 ° 3.00° 754 ft / 230 m (AMSL)
01 LOC-ILS KE 109.50 MHz 18 nm / 33 km 13.05° / 7.19 ° - 754 ft / 230 m (AMSL)
01 OM OM - - 13.00° / 7.14 ° - 755 ft / 230 m (AMSL)
01 MM MM - - 13.00° / 7.14 ° - 755 ft / 230 m (AMSL)

Popular Alternatives